Time;durP1;ratioP1;P1;durP2;ratioP2;P2;SDS_P1;SDS_P2;PMS_P1;PMS_P2;Temp;Humidity;BMP_temperature;BMP_pressure;BME280_temperature;BME280_humidity;BME280_pressure;Samples;Min_cycle;Max_cycle;Signal;HPM_P1;HPM_P2
2021/03/18 00:05:10;;;;;;;15.27;9.63;;;0.70;99.90;;;;;;12565098;28;20590;-84
2021/03/18 00:11:15;;;;;;;19.33;11.75;;;0.60;99.90;;;;;;12581350;28;20423;-84
2021/03/18 00:17:16;;;;;;;23.95;15.45;;;0.80;99.90;;;;;;12592129;28;20048;-84
2021/03/18 00:23:18;;;;;;;25.45;15.57;;;0.90;99.90;;;;;;12583726;28;20039;-84
2021/03/18 00:29:19;;;;;;;17.48;11.68;;;1.10;99.90;;;;;;12582762;28;20056;-83
2021/03/18 00:35:29;;;;;;;21.23;12.77;;;0.90;99.90;;;;;;12584842;28;20043;-84
2021/03/18 00:41:30;;;;;;;21.52;12.65;;;0.70;99.90;;;;;;12581390;28;20054;-84
2021/03/18 00:47:31;;;;;;;17.52;12.85;;;0.70;99.90;;;;;;12579398;28;20079;-84
2021/03/18 00:53:40;;;;;;;22.50;12.15;;;0.60;99.90;;;;;;12586356;28;20064;-84
2021/03/18 00:59:41;;;;;;;21.38;13.02;;;0.50;99.90;;;;;;12583470;28;20056;-83
2021/03/18 01:05:54;;;;;;;23.42;15.32;;;0.50;99.90;;;;;;12595909;28;20075;-84
2021/03/18 01:11:56;;;;;;;25.75;15.75;;;0.70;99.90;;;;;;12581949;28;20143;-84
2021/03/18 01:17:57;;;;;;;28.70;19.88;;;0.90;99.90;;;;;;12577968;28;20146;-84
2021/03/18 01:24:02;;;;;;;25.27;18.40;;;1.20;99.90;;;;;;12584016;28;20036;-84
2021/03/18 01:30:13;;;;;;;27.88;17.83;;;1.50;99.90;;;;;;12583422;28;20068;-84
2021/03/18 01:36:15;;;;;;;27.17;19.17;;;1.60;99.90;;;;;;12583762;28;20048;-84
2021/03/18 01:42:16;;;;;;;29.85;18.40;;;1.70;99.90;;;;;;12577418;28;20176;-84
2021/03/18 01:48:18;;;;;;;25.40;18.00;;;1.70;99.90;;;;;;12573596;28;20109;-85
2021/03/18 01:54:19;;;;;;;26.65;17.35;;;1.60;99.90;;;;;;12582255;28;20077;-84
2021/03/18 02:00:25;;;;;;;31.48;19.00;;;1.60;99.90;;;;;;12580802;28;20072;-84
2021/03/18 02:06:29;;;;;;;35.58;18.25;;;1.90;99.90;;;;;;12575773;28;20139;-84
2021/03/18 02:12:31;;;;;;;42.97;19.90;;;2.10;99.90;;;;;;12597511;28;20127;-83
2021/03/18 02:19:03;;;;;;;37.38;21.25;;;2.00;99.90;;;;;;12591407;28;20507;-84
2021/03/18 02:25:23;;;;;;;49.97;22.10;;;1.80;99.90;;;;;;12584441;28;20290;-84
2021/03/18 02:31:27;;;;;;;64.15;24.73;;;1.70;99.90;;;;;;12591857;28;20048;-84
2021/03/18 02:37:31;;;;;;;68.60;24.20;;;1.60;99.90;;;;;;12568072;28;20047;-84
2021/03/18 02:43:40;;;;;;;144.93;29.20;;;1.60;99.90;;;;;;12576427;28;20048;-84
2021/03/18 02:49:44;;;;;;;166.20;23.80;;;1.50;99.90;;;;;;12586104;28;20089;-84
2021/03/18 02:55:49;;;;;;;290.63;29.65;;;1.80;99.90;;;;;;12589191;28;20048;-84
2021/03/18 03:01:51;;;;;;;266.10;24.58;;;2.00;99.90;;;;;;12568254;28;20048;-83
2021/03/18 03:07:53;;;;;;;221.60;23.95;;;2.10;99.90;;;;;;12576886;28;20260;-84
2021/03/18 03:13:57;;;;;;;298.33;25.35;;;1.90;99.90;;;;;;12588475;28;20131;-84
2021/03/18 03:20:00;;;;;;;279.02;25.90;;;2.00;99.90;;;;;;12569271;28;20063;-83
2021/03/18 03:26:03;;;;;;;280.77;19.98;;;2.20;99.90;;;;;;12573429;28;20079;-83
2021/03/18 03:32:06;;;;;;;238.90;24.73;;;2.10;99.90;;;;;;12579200;28;20075;-83
2021/03/18 03:38:08;;;;;;;259.40;24.52;;;2.00;99.90;;;;;;12576438;28;20052;-84
2021/03/18 03:44:09;;;;;;;355.15;26.70;;;1.50;99.90;;;;;;12572968;28;20621;-84
2021/03/18 03:50:21;;;;;;;388.05;29.60;;;1.60;99.90;;;;;;12592808;28;20658;-84
2021/03/18 03:56:54;;;;;;;222.60;22.42;;;1.60;99.90;;;;;;12587799;28;20072;-84
2021/03/18 04:02:59;;;;;;;257.42;25.13;;;1.60;99.90;;;;;;12559533;28;641445;-84
2021/03/18 04:09:03;;;;;;;305.42;24.02;;;1.70;99.90;;;;;;12559019;28;20125;-84
2021/03/18 04:15:08;;;;;;;290.33;23.70;;;1.30;99.90;;;;;;12584199;28;20075;-84
2021/03/18 04:21:11;;;;;;;417.30;27.77;;;1.10;99.90;;;;;;12603650;28;20131;-84
2021/03/18 04:27:13;;;;;;;217.55;21.63;;;1.40;99.90;;;;;;12598169;28;20294;-84
2021/03/18 04:33:15;;;;;;;286.92;28.08;;;1.50;99.90;;;;;;12588485;28;20100;-84
2021/03/18 04:39:17;;;;;;;346.98;29.02;;;1.30;99.90;;;;;;12583200;28;20476;-83
2021/03/18 04:45:21;;;;;;;144.55;21.30;;;1.30;99.90;;;;;;12582662;28;20051;-83
2021/03/18 04:51:23;;;;;;;200.68;23.55;;;1.40;99.90;;;;;;12572543;28;20452;-83
2021/03/18 04:57:25;;;;;;;206.52;24.08;;;1.40;99.90;;;;;;12568782;28;20427;-84
2021/03/18 05:03:33;;;;;;;328.73;28.25;;;1.40;99.90;;;;;;12573721;28;20044;-84
2021/03/18 05:09:35;;;;;;;172.80;25.27;;;1.30;99.90;;;;;;12580823;28;20139;-84
2021/03/18 05:15:38;;;;;;;179.85;25.77;;;1.20;99.90;;;;;;12578538;28;20142;-84
2021/03/18 05:21:43;;;;;;;130.77;25.77;;;1.30;99.90;;;;;;12568617;28;20094;-84
2021/03/18 05:27:44;;;;;;;;;;;1.10;99.90;;;;;;12576653;28;20040;-84
2021/03/18 05:33:45;;;;;;;188.43;25.02;;;1.10;99.90;;;;;;12577257;28;19932;-84
2021/03/18 05:39:47;;;;;;;228.13;29.02;;;1.10;99.90;;;;;;12577155;28;20549;-84
2021/03/18 05:45:48;;;;;;;224.82;30.38;;;1.20;99.90;;;;;;12578683;28;20495;-84
2021/03/18 05:51:51;;;;;;;143.05;27.92;;;1.20;99.90;;;;;;12566111;28;20083;-84
2021/03/18 05:57:53;;;;;;;162.95;24.30;;;1.30;99.90;;;;;;12571349;28;20131;-85
2021/03/18 06:03:57;;;;;;;115.97;24.48;;;1.50;99.90;;;;;;12565135;28;20040;-85
2021/03/18 06:10:00;;;;;;;139.98;25.25;;;1.40;99.90;;;;;;12561484;28;20082;-85
2021/03/18 06:16:04;;;;;;;140.20;24.52;;;1.50;99.90;;;;;;12554813;28;20052;-85
2021/03/18 06:22:07;;;;;;;105.30;23.80;;;1.30;99.90;;;;;;12551901;28;20472;-85
2021/03/18 06:28:16;;;;;;;118.75;24.70;;;1.20;99.90;;;;;;12571387;28;20055;-85
2021/03/18 06:34:38;;;;;;;126.75;25.63;;;1.20;99.90;;;;;;12571173;28;20079;-86
2021/03/18 06:40:45;;;;;;;120.68;24.70;;;1.30;99.90;;;;;;12547100;28;20758;-85
2021/03/18 06:46:47;;;;;;;111.20;25.33;;;1.30;99.90;;;;;;12552625;28;20040;-84
2021/03/18 06:52:50;;;;;;;80.50;25.58;;;1.30;99.90;;;;;;12565542;28;20576;-85
2021/03/18 06:58:52;;;;;;;103.40;26.55;;;1.20;99.90;;;;;;12566519;28;20140;-85
2021/03/18 07:04:56;;;;;;;68.38;26.63;;;1.40;99.90;;;;;;12543318;28;20495;-85
2021/03/18 07:11:00;;;;;;;80.88;24.58;;;1.60;99.90;;;;;;12573607;28;20163;-85
2021/03/18 07:17:03;;;;;;;76.13;25.75;;;1.80;99.90;;;;;;12579269;28;20562;-85
2021/03/18 07:23:12;;;;;;;42.42;22.27;;;1.70;99.90;;;;;;12560147;28;20063;-85
2021/03/18 07:29:24;;;;;;;38.35;20.70;;;1.90;99.90;;;;;;12571337;28;20051;-85
2021/03/18 07:35:28;;;;;;;36.67;20.90;;;2.00;99.90;;;;;;12575697;28;20048;-85
2021/03/18 07:41:32;;;;;;;38.97;22.20;;;2.00;99.90;;;;;;12556462;28;20040;-85
2021/03/18 07:47:36;;;;;;;39.35;22.05;;;2.20;99.90;;;;;;12583665;28;20044;-85
2021/03/18 07:53:39;;;;;;;34.45;19.95;;;2.20;99.90;;;;;;12565366;28;20070;-85
2021/03/18 07:59:42;;;;;;;42.22;21.83;;;2.00;99.90;;;;;;12569887;28;20057;-85
2021/03/18 08:05:44;;;;;;;53.55;23.02;;;2.20;99.90;;;;;;12561128;28;20043;-85
2021/03/18 08:11:48;;;;;;;33.45;20.40;;;2.20;99.90;;;;;;12562986;28;20167;-85
2021/03/18 08:17:54;;;;;;;34.22;19.88;;;2.40;99.90;;;;;;12585363;28;20058;-85
2021/03/18 08:23:56;;;;;;;37.15;19.25;;;2.20;99.90;;;;;;12583700;28;20093;-85
2021/03/18 08:30:00;;;;;;;33.28;18.67;;;2.00;99.90;;;;;;12571808;28;20206;-85
2021/03/18 08:36:23;;;;;;;35.55;19.73;;;1.90;99.90;;;;;;12561410;28;20105;-85
2021/03/18 08:42:28;;;;;;;35.05;18.52;;;2.10;99.90;;;;;;12566921;28;20056;-85
2021/03/18 08:48:29;;;;;;;39.45;19.60;;;2.10;99.90;;;;;;12564835;28;20110;-85
2021/03/18 08:54:41;;;;;;;36.13;20.27;;;2.20;99.90;;;;;;12557534;28;20158;-85
2021/03/18 09:00:47;;;;;;;31.48;19.13;;;2.30;99.90;;;;;;12561599;28;20097;-85
2021/03/18 09:06:49;;;;;;;35.33;19.77;;;2.30;99.90;;;;;;12561810;28;20090;-85
2021/03/18 09:12:58;;;;;;;38.53;20.35;;;2.40;99.90;;;;;;12546376;28;20121;-85
2021/03/18 09:19:01;;;;;;;36.38;20.65;;;2.40;99.90;;;;;;12563692;28;20056;-85
2021/03/18 09:25:04;;;;;;;41.08;22.33;;;2.60;99.90;;;;;;12577975;28;20048;-85
2021/03/18 09:31:07;;;;;;;47.08;24.63;;;2.80;99.90;;;;;;12577120;28;20453;-85
2021/03/18 09:37:09;;;;;;;52.20;24.65;;;2.40;99.90;;;;;;12573079;28;20113;-85
2021/03/18 09:43:13;;;;;;;49.60;24.10;;;2.60;99.90;;;;;;12573494;28;20044;-85
2021/03/18 09:49:25;;;;;;;47.35;22.67;;;2.60;99.90;;;;;;12555762;28;20090;-85
2021/03/18 09:55:26;;;;;;;39.97;20.60;;;2.80;99.90;;;;;;12576194;28;20129;-84
2021/03/18 10:01:30;;;;;;;47.83;21.05;;;2.90;99.90;;;;;;12572175;28;20040;-85
2021/03/18 10:07:34;;;;;;;41.93;19.00;;;3.10;99.90;;;;;;12563049;28;20041;-85
2021/03/18 10:13:38;;;;;;;43.50;20.63;;;3.30;99.90;;;;;;12566686;28;20482;-85
2021/03/18 10:19:50;;;;;;;46.25;20.60;;;3.30;99.90;;;;;;12549680;28;20066;-85
2021/03/18 10:25:53;;;;;;;46.97;20.42;;;3.30;99.90;;;;;;12565008;28;20076;-85
2021/03/18 10:32:07;;;;;;;38.08;20.00;;;3.40;99.90;;;;;;12550337;28;20109;-85
2021/03/18 10:38:10;;;;;;;37.60;19.40;;;3.30;99.90;;;;;;12555460;28;20063;-85
2021/03/18 10:44:12;;;;;;;34.50;18.08;;;3.20;99.90;;;;;;12554142;28;20051;-85
2021/03/18 10:50:21;;;;;;;33.75;18.48;;;3.20;99.90;;;;;;12562798;28;20048;-85
2021/03/18 10:56:28;;;;;;;31.88;16.35;;;3.20;99.90;;;;;;12565288;28;20134;-85
2021/03/18 11:02:31;;;;;;;32.08;15.68;;;3.20;99.90;;;;;;12568942;28;20601;-85
2021/03/18 11:08:33;;;;;;;30.10;16.30;;;3.30;99.90;;;;;;12623839;28;20043;-86
2021/03/18 11:14:55;;;;;;;29.92;15.43;;;3.50;99.90;;;;;;12632255;28;20054;-86
2021/03/18 11:20:58;;;;;;;25.55;14.45;;;3.50;99.90;;;;;;12616270;28;20404;-85
2021/03/18 11:27:02;;;;;;;31.00;16.42;;;3.50;99.90;;;;;;12576818;28;20579;-86
2021/03/18 11:33:33;;;;;;;32.33;16.85;;;3.30;99.90;;;;;;12575855;28;20047;-85
2021/03/18 11:39:36;;;;;;;32.78;17.27;;;3.30;99.90;;;;;;12562863;28;20299;-85
2021/03/18 11:45:39;;;;;;;28.13;15.75;;;3.30;99.90;;;;;;12572956;28;20055;-85
2021/03/18 11:51:42;;;;;;;27.15;15.38;;;3.30;99.90;;;;;;12555360;28;20579;-85
2021/03/18 11:57:43;;;;;;;24.75;14.52;;;3.30;99.90;;;;;;12550537;28;20052;-85
2021/03/18 12:03:46;;;;;;;29.67;14.43;;;3.40;99.90;;;;;;12533429;28;20888;-85
2021/03/18 12:09:49;;;;;;;28.88;15.02;;;3.10;99.90;;;;;;12575482;28;20071;-85
2021/03/18 12:15:51;;;;;;;26.75;14.77;;;3.40;99.90;;;;;;12574383;28;20044;-85
2021/03/18 12:21:53;;;;;;;22.83;14.50;;;3.70;99.90;;;;;;12566847;28;20125;-85
2021/03/18 12:27:54;;;;;;;23.33;13.38;;;4.00;99.90;;;;;;12568298;28;20036;-85
2021/03/18 12:33:56;;;;;;;22.17;12.75;;;4.70;99.90;;;;;;12574716;28;20040;-85
2021/03/18 12:39:58;;;;;;;20.30;13.45;;;4.60;99.90;;;;;;12570704;28;20109;-86
2021/03/18 12:45:59;;;;;;;22.92;12.95;;;5.10;99.90;;;;;;12599194;28;20044;-86
2021/03/18 12:52:02;;;;;;;21.85;13.00;;;5.30;99.90;;;;;;12567310;28;20591;-85
2021/03/18 12:58:04;;;;;;;19.35;12.23;;;5.60;99.90;;;;;;12570583;28;20138;-85
2021/03/18 13:04:07;;;;;;;21.17;12.45;;;5.90;99.90;;;;;;12577309;28;20488;-86
2021/03/18 13:10:11;;;;;;;;;;;6.00;99.90;;;;;;12569354;28;20099;-86
2021/03/18 13:16:12;;;;;;;19.55;12.20;;;5.90;99.90;;;;;;12570162;28;19936;-86
2021/03/18 13:22:15;;;;;;;19.58;12.88;;;6.00;99.90;;;;;;12575898;28;20083;-86
2021/03/18 13:28:16;;;;;;;21.17;12.73;;;6.00;99.90;;;;;;12590454;28;20048;-85
2021/03/18 13:34:18;;;;;;;21.13;12.48;;;6.40;99.90;;;;;;12556059;28;20051;-86
2021/03/18 13:40:21;;;;;;;20.60;12.95;;;6.60;99.90;;;;;;12572040;28;20044;-86
2021/03/18 13:46:24;;;;;;;20.27;12.80;;;6.70;99.90;;;;;;12580945;28;20074;-86
2021/03/18 13:52:25;;;;;;;18.15;12.18;;;6.50;99.90;;;;;;12558694;28;20040;-86
2021/03/18 13:58:27;;;;;;;16.60;10.82;;;6.10;99.90;;;;;;12581451;28;20507;-85
2021/03/18 14:04:28;;;;;;;18.88;12.10;;;5.90;99.90;;;;;;12577780;28;21121;-86
2021/03/18 14:10:30;;;;;;;21.15;13.23;;;5.70;99.90;;;;;;12571322;28;20052;-86
2021/03/18 14:16:31;;;;;;;25.95;13.95;;;5.20;99.90;;;;;;12573971;28;20393;-85
2021/03/18 14:22:33;;;;;;;22.88;13.75;;;4.70;99.90;;;;;;12580868;28;20049;-86
2021/03/18 14:28:35;;;;;;;24.80;13.60;;;4.80;99.90;;;;;;12587184;28;20055;-86
2021/03/18 14:34:36;;;;;;;24.70;15.63;;;4.90;99.90;;;;;;12584105;28;20080;-86
2021/03/18 14:40:39;;;;;;;29.23;15.95;;;4.70;99.90;;;;;;12589187;28;20047;-85
2021/03/18 14:46:41;;;;;;;29.23;17.10;;;4.70;99.90;;;;;;12590601;28;20040;-86
2021/03/18 14:52:42;;;;;;;28.80;17.85;;;4.40;99.90;;;;;;12585611;28;20068;-86
2021/03/18 14:58:44;;;;;;;33.10;18.10;;;4.20;99.90;;;;;;12580229;28;20416;-86
2021/03/18 15:04:45;;;;;;;32.10;17.73;;;4.00;99.90;;;;;;12582699;28;20051;-85
2021/03/18 15:10:47;;;;;;;30.65;17.58;;;3.90;99.90;;;;;;12588970;28;20040;-86
2021/03/18 15:17:01;;;;;;;36.63;18.52;;;3.80;99.90;;;;;;12599216;28;20044;-85
2021/03/18 15:23:02;;;;;;;32.50;18.55;;;3.80;99.90;;;;;;12575692;28;20035;-85
2021/03/18 15:29:09;;;;;;;33.50;18.25;;;3.70;99.90;;;;;;12547744;28;20090;-85
2021/03/18 15:35:11;;;;;;;39.20;18.60;;;3.70;99.90;;;;;;12569818;28;20049;-86
2021/03/18 15:41:13;;;;;;;36.20;19.92;;;3.70;99.90;;;;;;12571359;28;20479;-85
2021/03/18 15:47:34;;;;;;;33.75;18.10;;;3.70;99.90;;;;;;12574740;28;20519;-86
2021/03/18 15:53:37;;;;;;;32.63;17.50;;;3.70;99.90;;;;;;12550022;28;20041;-85
2021/03/18 15:59:38;;;;;;;30.30;17.05;;;3.80;99.90;;;;;;12580733;28;20495;-86
2021/03/18 16:05:40;;;;;;;26.02;13.63;;;3.90;99.90;;;;;;12580989;28;20151;-86
2021/03/18 16:11:41;;;;;;;22.73;11.85;;;3.90;99.90;;;;;;12541429;28;20094;-85
2021/03/18 16:17:55;;;;;;;21.23;11.40;;;4.40;99.90;;;;;;12567300;28;20690;-86
2021/03/18 16:23:57;;;;;;;21.88;11.02;;;4.50;99.90;;;;;;12570101;28;20040;-86
2021/03/18 16:29:58;;;;;;;19.45;11.20;;;4.30;99.90;;;;;;12551575;28;20456;-85
2021/03/18 16:36:14;;;;;;;20.70;10.43;;;4.40;99.90;;;;;;12566673;28;20563;-85
2021/03/18 16:42:16;;;;;;;19.83;10.82;;;4.20;99.90;;;;;;12571108;28;20139;-85
2021/03/18 16:48:22;;;;;;;23.25;11.85;;;4.10;99.90;;;;;;12533517;28;20444;-85
2021/03/18 16:54:23;;;;;;;19.40;10.88;;;4.00;99.90;;;;;;12563089;28;20055;-85
2021/03/18 17:00:29;;;;;;;24.85;13.68;;;3.90;99.90;;;;;;12567637;28;20048;-85
2021/03/18 17:06:32;;;;;;;23.10;12.70;;;3.80;99.90;;;;;;12555583;28;20424;-85
2021/03/18 17:12:33;;;;;;;20.83;12.40;;;3.70;99.90;;;;;;12552648;28;20054;-85
2021/03/18 17:18:43;;;;;;;20.85;11.38;;;3.70;99.90;;;;;;12565519;28;20047;-85
2021/03/18 17:24:44;;;;;;;21.73;11.95;;;3.80;99.90;;;;;;12523167;28;20055;-86
2021/03/18 17:30:48;;;;;;;18.42;11.55;;;3.80;99.90;;;;;;12559887;28;20080;-85
2021/03/18 17:36:50;;;;;;;17.70;11.60;;;4.20;99.90;;;;;;12564918;28;20617;-85
2021/03/18 17:42:51;;;;;;;19.42;11.40;;;4.00;99.90;;;;;;12562062;28;20093;-85
2021/03/18 17:49:10;;;;;;;20.40;12.32;;;4.10;99.90;;;;;;12560880;28;20045;-84
2021/03/18 17:55:17;;;;;;;17.40;11.45;;;3.90;99.90;;;;;;12565763;28;20055;-84
2021/03/18 18:01:19;;;;;;;19.45;12.18;;;3.80;99.90;;;;;;12556815;28;20135;-84
2021/03/18 18:07:21;;;;;;;18.67;12.82;;;3.60;99.90;;;;;;12562160;28;20076;-84
2021/03/18 18:13:23;;;;;;;22.90;12.65;;;3.50;99.90;;;;;;12558695;28;20055;-84
2021/03/18 18:19:35;;;;;;;24.00;14.15;;;3.40;99.90;;;;;;12580104;28;20565;-84
2021/03/18 18:25:36;;;;;;;22.83;14.35;;;3.30;99.90;;;;;;12543372;28;20087;-83
2021/03/18 18:31:39;;;;;;;24.38;14.90;;;3.30;99.90;;;;;;12555764;28;20097;-84
2021/03/18 18:37:46;;;;;;;22.75;13.98;;;3.50;99.90;;;;;;12557490;28;20048;-84
2021/03/18 18:43:48;;;;;;;21.80;13.43;;;3.40;99.90;;;;;;12566606;28;20047;-84
2021/03/18 18:49:55;;;;;;;27.23;14.32;;;3.30;99.90;;;;;;12576318;28;20036;-84
2021/03/18 18:55:56;;;;;;;22.65;14.40;;;3.30;99.90;;;;;;12580931;28;20186;-84
2021/03/18 19:01:58;;;;;;;24.52;14.77;;;3.30;99.90;;;;;;12572701;28;20554;-84
2021/03/18 19:08:00;;;;;;;22.80;14.32;;;3.20;99.90;;;;;;12557898;28;20056;-84
2021/03/18 19:14:03;;;;;;;19.77;12.35;;;3.20;99.90;;;;;;12573084;28;20059;-84
2021/03/18 19:20:20;;;;;;;20.73;12.93;;;3.20;99.90;;;;;;12573056;28;20048;-84
2021/03/18 19:26:22;;;;;;;22.88;14.45;;;3.20;99.90;;;;;;12574338;28;20036;-84
2021/03/18 19:32:25;;;;;;;32.00;17.95;;;3.30;99.90;;;;;;12574573;28;20056;-84
2021/03/18 19:38:27;;;;;;;22.75;16.20;;;3.20;99.90;;;;;;12589388;28;20079;-84
2021/03/18 19:44:28;;;;;;;25.35;15.25;;;3.40;99.90;;;;;;12565853;28;20058;-84
2021/03/18 19:50:39;;;;;;;22.52;14.02;;;3.40;99.90;;;;;;12577803;28;20059;-84
2021/03/18 19:56:41;;;;;;;27.60;14.68;;;3.30;99.90;;;;;;12585069;28;20092;-84
2021/03/18 20:02:45;;;;;;;18.80;11.70;;;3.30;99.90;;;;;;12546451;28;20606;-84
2021/03/18 20:08:46;;;;;;;18.15;10.70;;;3.30;99.90;;;;;;12550033;28;20127;-84
2021/03/18 20:14:48;;;;;;;16.95;8.90;;;3.30;99.90;;;;;;12580323;28;20395;-84
2021/03/18 20:21:00;;;;;;;16.77;9.43;;;3.40;99.90;;;;;;12575208;28;20078;-84
2021/03/18 20:27:02;;;;;;;13.90;9.18;;;3.30;99.90;;;;;;12571678;28;20044;-84
2021/03/18 20:33:05;;;;;;;12.43;8.65;;;3.30;99.90;;;;;;12565613;28;20542;-84
2021/03/18 20:39:08;;;;;;;17.70;9.23;;;3.20;99.90;;;;;;12568804;28;20051;-84
2021/03/18 20:45:12;;;;;;;17.55;10.15;;;3.10;99.90;;;;;;12570462;28;20317;-84
2021/03/18 20:51:26;;;;;;;22.23;10.88;;;2.90;99.90;;;;;;12557231;28;20082;-84
2021/03/18 20:57:28;;;;;;;19.05;10.52;;;2.80;99.90;;;;;;12550055;28;20606;-84
2021/03/18 21:03:29;;;;;;;19.98;13.35;;;2.70;99.90;;;;;;12582638;28;20066;-84
2021/03/18 21:09:31;;;;;;;23.05;13.05;;;2.50;99.90;;;;;;12570451;28;20431;-83
2021/03/18 21:15:37;;;;;;;20.95;13.52;;;2.50;99.90;;;;;;12577351;28;20480;-83
2021/03/18 21:21:45;;;;;;;26.15;15.20;;;2.30;99.90;;;;;;12578238;28;20044;-84
2021/03/18 21:27:47;;;;;;;29.10;17.20;;;2.20;99.90;;;;;;12570966;28;20192;-83
2021/03/18 21:33:49;;;;;;;30.80;17.70;;;2.30;99.90;;;;;;12575064;28;20051;-84
2021/03/18 21:39:51;;;;;;;34.33;18.67;;;2.30;99.90;;;;;;12566073;28;20101;-84
2021/03/18 21:45:53;;;;;;;34.88;20.30;;;2.40;99.90;;;;;;12557964;28;20842;-84
2021/03/18 21:52:07;;;;;;;41.80;22.63;;;2.50;99.90;;;;;;12566652;28;20040;-84
2021/03/18 21:58:09;;;;;;;38.97;21.25;;;2.70;99.90;;;;;;12572995;28;20052;-84
2021/03/18 22:04:10;;;;;;;41.60;23.00;;;2.70;99.90;;;;;;12577777;28;20063;-84
2021/03/18 22:10:12;;;;;;;41.15;23.08;;;2.70;99.90;;;;;;12577335;28;20054;-84
2021/03/18 22:16:13;;;;;;;40.35;21.92;;;2.80;99.90;;;;;;12549481;28;20052;-84
2021/03/18 22:22:28;;;;;;;;;;;2.70;99.90;;;;;;12576984;28;20052;-84
2021/03/18 22:28:29;;;;;;;47.10;24.00;;;2.70;99.90;;;;;;12569018;28;19924;-84
2021/03/18 22:34:31;;;;;;;41.90;23.15;;;2.80;99.90;;;;;;12590669;28;20044;-84
2021/03/18 22:40:32;;;;;;;44.55;24.25;;;2.70;99.90;;;;;;12566157;28;20131;-84
2021/03/18 22:46:35;;;;;;;45.60;26.33;;;2.70;99.90;;;;;;12571615;28;20553;-83
2021/03/18 22:52:50;;;;;;;45.67;25.95;;;2.80;99.90;;;;;;12596069;28;20044;-84
2021/03/18 22:58:51;;;;;;;48.67;26.27;;;2.80;99.90;;;;;;12581631;28;20516;-84
2021/03/18 23:04:53;;;;;;;48.35;25.48;;;2.80;99.90;;;;;;12585560;28;20048;-84
2021/03/18 23:10:54;;;;;;;36.95;19.95;;;2.60;99.90;;;;;;12548422;28;20086;-84
2021/03/18 23:23:17;;;;;;;32.60;18.65;;;2.50;99.90;;;;;;12583483;28;20048;-84
2021/03/18 23:29:18;;;;;;;32.92;17.65;;;2.40;99.90;;;;;;12596139;28;20043;-84
2021/03/18 23:35:20;;;;;;;30.85;17.10;;;2.30;99.90;;;;;;12582397;28;20130;-85
2021/03/18 23:41:21;;;;;;;25.65;15.02;;;2.20;99.90;;;;;;12580724;28;20056;-84
2021/03/18 23:47:23;;;;;;;27.10;14.85;;;2.00;99.90;;;;;;12568553;28;20043;-84
2021/03/18 23:53:36;;;;;;;27.25;14.77;;;1.90;99.90;;;;;;12564357;28;20058;-84
2021/03/18 23:59:38;;;;;;;27.15;14.18;;;1.70;99.90;;;;;;12572134;28;20512;-84
